createdAt,value
2018-01-31T01:52:48.002Z,1011.90
2018-01-31T01:53:47.952Z,1011.85
2018-01-31T01:54:47.910Z,1011.81
2018-01-31T01:55:47.865Z,1011.77
2018-01-31T01:56:47.814Z,1011.67
2018-01-31T01:57:47.773Z,1011.70
2018-01-31T01:58:47.726Z,1011.69
2018-01-31T01:59:47.683Z,1011.70
2018-01-31T02:00:47.634Z,1011.69
2018-01-31T02:01:47.583Z,1011.64
2018-01-31T02:02:47.540Z,1011.57
2018-01-31T02:03:47.495Z,1011.57
2018-01-31T02:04:47.446Z,1011.50
2018-01-31T02:05:47.402Z,1011.46
2018-01-31T02:06:47.356Z,1011.49
2018-01-31T02:07:47.308Z,1011.38
2018-01-31T02:08:47.262Z,1011.38
2018-01-31T02:09:47.215Z,1011.33
2018-01-31T02:10:47.173Z,1011.37
2018-01-31T02:11:47.122Z,1011.27
2018-01-31T02:12:47.079Z,1011.27
2018-01-31T02:13:47.034Z,1011.26
2018-01-31T02:14:46.988Z,1011.19
2018-01-31T02:15:46.986Z,1011.17
2018-01-31T02:16:46.896Z,1011.11
2018-01-31T02:17:46.858Z,1011.09
2018-01-31T02:18:46.818Z,1011.07
2018-01-31T02:19:46.755Z,1011.00
2018-01-31T02:20:46.711Z,1010.93
2018-01-31T02:21:46.664Z,1010.95
2018-01-31T02:22:46.622Z,1010.91
2018-01-31T02:23:46.571Z,1010.90
2018-01-31T02:24:46.528Z,1010.86
2018-01-31T02:25:46.481Z,1010.79
2018-01-31T02:26:46.439Z,1010.72
2018-01-31T02:27:46.388Z,1010.77
2018-01-31T02:28:46.346Z,1010.67
2018-01-31T02:29:46.299Z,1010.69
2018-01-31T02:30:46.251Z,1010.60
2018-01-31T02:31:46.206Z,1010.60
2018-01-31T02:32:46.159Z,1010.62
2018-01-31T02:33:46.125Z,1010.63
2018-01-31T02:34:46.068Z,1010.57
2018-01-31T02:35:46.020Z,1010.53
2018-01-31T02:36:45.973Z,1010.50
2018-01-31T02:37:45.930Z,1010.56
2018-01-31T02:38:45.888Z,1010.47
2018-01-31T02:39:45.836Z,1010.50
2018-01-31T02:40:45.794Z,1010.42
2018-01-31T02:41:45.755Z,1010.49
2018-01-31T02:42:45.700Z,1010.45
2018-01-31T02:43:45.653Z,1010.44
2018-01-31T02:44:45.608Z,1010.36
2018-01-31T02:45:45.560Z,1010.31
2018-01-31T02:46:45.514Z,1010.36
2018-01-31T02:47:45.467Z,1010.36
2018-01-31T02:48:45.422Z,1010.31
2018-01-31T02:49:45.381Z,1010.31
2018-01-31T02:50:45.335Z,1010.26
2018-01-31T02:51:45.285Z,1010.16
2018-01-31T02:52:45.241Z,1010.13
2018-01-31T02:53:45.198Z,1010.10
2018-01-31T02:54:45.151Z,1010.12
2018-01-31T02:55:45.101Z,1010.04
2018-01-31T02:56:45.054Z,1010.06
2018-01-31T02:57:45.012Z,1010.04
2018-01-31T02:58:44.966Z,1010.00
2018-01-31T02:59:44.918Z,1009.97
2018-01-31T03:00:44.875Z,1009.99
2018-01-31T03:01:44.831Z,1009.99
2018-01-31T03:02:44.780Z,1009.95
2018-01-31T03:03:44.740Z,1009.90
2018-01-31T03:04:44.692Z,1009.85
2018-01-31T03:05:44.645Z,1009.87
2018-01-31T03:06:44.599Z,1009.86
2018-01-31T03:07:44.552Z,1009.84
2018-01-31T03:08:44.506Z,1009.89
2018-01-31T03:09:44.462Z,1009.83
2018-01-31T03:10:44.415Z,1009.76
2018-01-31T03:11:44.367Z,1009.71
2018-01-31T03:12:44.321Z,1009.74
2018-01-31T03:13:44.279Z,1009.72
2018-01-31T03:14:44.230Z,1009.69
2018-01-31T03:15:44.188Z,1009.60
2018-01-31T03:16:44.141Z,1009.65
2018-01-31T03:17:44.094Z,1009.62
2018-01-31T03:18:44.047Z,1009.62
2018-01-31T03:19:43.999Z,1009.59
2018-01-31T03:20:43.959Z,1009.53
2018-01-31T03:21:43.910Z,1009.56
2018-01-31T03:22:43.866Z,1009.55
2018-01-31T03:23:43.816Z,1009.46
2018-01-31T03:24:43.772Z,1009.48
2018-01-31T03:25:43.728Z,1009.44
2018-01-31T03:26:43.681Z,1009.39
2018-01-31T03:27:43.635Z,1009.38
2018-01-31T03:28:43.588Z,1009.35
2018-01-31T03:29:43.544Z,1009.29
2018-01-31T03:30:43.499Z,1009.25
2018-01-31T03:31:43.452Z,1009.26
2018-01-31T03:32:43.408Z,1009.17
2018-01-31T03:33:43.358Z,1009.14
2018-01-31T03:34:43.313Z,1009.06
2018-01-31T03:35:43.278Z,1009.14
2018-01-31T03:36:43.221Z,1009.04
2018-01-31T03:37:43.195Z,1009.07
2018-01-31T03:38:43.129Z,1009.09
2018-01-31T03:39:43.086Z,1008.99
2018-01-31T03:40:43.039Z,1009.03
2018-01-31T03:41:42.996Z,1009.00
2018-01-31T03:42:42.953Z,1008.96
2018-01-31T03:43:42.904Z,1009.03
2018-01-31T03:44:42.855Z,1008.96
2018-01-31T03:45:42.815Z,1008.91
2018-01-31T03:46:42.768Z,1008.88
2018-01-31T03:47:43.772Z,1008.92
2018-01-31T03:48:42.676Z,1008.86
2018-01-31T03:49:42.632Z,1008.77
2018-01-31T03:50:42.587Z,1008.80
2018-01-31T03:51:42.536Z,1008.72
2018-01-31T03:52:42.490Z,1008.75
2018-01-31T03:53:42.449Z,1008.70
2018-01-31T03:54:42.402Z,1008.68
2018-01-31T03:55:42.358Z,1008.70
2018-01-31T03:56:42.310Z,1008.60
2018-01-31T03:57:42.264Z,1008.63
2018-01-31T03:58:42.219Z,1008.63
2018-01-31T03:59:42.172Z,1008.61
2018-01-31T04:00:42.127Z,1008.61
2018-01-31T04:01:42.081Z,1008.57
2018-01-31T04:02:42.038Z,1008.50
2018-01-31T04:03:41.990Z,1008.52
2018-01-31T04:04:41.946Z,1008.55
2018-01-31T04:05:41.902Z,1008.49
2018-01-31T04:06:41.854Z,1008.50
2018-01-31T04:07:41.807Z,1008.47
2018-01-31T04:08:41.777Z,1008.44
2018-01-31T04:09:41.720Z,1008.44
2018-01-31T04:10:41.681Z,1008.42
2018-01-31T04:11:41.633Z,1008.39
2018-01-31T04:12:41.587Z,1008.37
2018-01-31T04:13:41.538Z,1008.43
2018-01-31T04:14:41.494Z,1008.32
2018-01-31T04:15:41.445Z,1008.35
2018-01-31T04:16:41.407Z,1008.31
2018-01-31T04:17:41.362Z,1008.26
2018-01-31T04:18:41.312Z,1008.28
2018-01-31T04:19:41.265Z,1008.23
2018-01-31T04:20:41.225Z,1008.30
2018-01-31T04:21:41.180Z,1008.25
2018-01-31T04:22:41.132Z,1008.26
2018-01-31T04:23:41.087Z,1008.18
2018-01-31T04:24:41.038Z,1008.16
2018-01-31T04:25:40.994Z,1008.12
2018-01-31T04:26:40.950Z,1008.14
2018-01-31T04:27:40.906Z,1008.15
2018-01-31T04:28:40.860Z,1008.12
2018-01-31T04:29:40.815Z,1008.02
2018-01-31T04:30:40.768Z,1008.08
2018-01-31T04:31:40.722Z,1008.05
2018-01-31T04:32:40.679Z,1008.07
2018-01-31T04:33:40.632Z,1008.04
2018-01-31T04:34:40.588Z,1007.98
2018-01-31T04:35:40.546Z,1008.00
2018-01-31T04:36:40.498Z,1007.96
2018-01-31T04:37:40.458Z,1007.96
2018-01-31T04:38:40.413Z,1007.93
2018-01-31T04:39:40.368Z,1007.90
2018-01-31T04:40:40.324Z,1007.87
2018-01-31T04:41:40.276Z,1007.88
2018-01-31T04:42:40.230Z,1007.79
2018-01-31T04:43:40.184Z,1007.87
2018-01-31T04:44:40.143Z,1007.68
2018-01-31T04:45:40.096Z,1007.76
2018-01-31T04:46:40.051Z,1007.78
2018-01-31T04:47:40.006Z,1007.76
2018-01-31T04:48:44.114Z,1007.85
2018-01-31T04:49:39.918Z,1007.72
2018-01-31T04:50:39.876Z,1007.70
2018-01-31T04:51:39.825Z,1007.75
2018-01-31T04:52:39.781Z,1007.77
2018-01-31T04:53:39.738Z,1007.70
2018-01-31T04:54:39.693Z,1007.68
2018-01-31T04:55:39.646Z,1007.66
2018-01-31T04:56:39.604Z,1007.84
2018-01-31T04:57:39.557Z,1007.67
2018-01-31T04:58:39.510Z,1007.70
2018-01-31T04:59:39.468Z,1007.69
2018-01-31T05:00:39.426Z,1007.65
2018-01-31T05:01:39.385Z,1007.60
2018-01-31T05:02:39.337Z,1007.65
2018-01-31T05:03:39.286Z,1007.58
2018-01-31T05:04:39.243Z,1007.56
2018-01-31T05:05:39.205Z,1007.57
2018-01-31T05:06:39.158Z,1007.55
2018-01-31T05:07:39.109Z,1007.55
2018-01-31T05:08:39.063Z,1007.55
2018-01-31T05:09:39.022Z,1007.62
2018-01-31T05:10:38.976Z,1007.45
2018-01-31T05:11:38.928Z,1007.53
2018-01-31T05:12:38.884Z,1007.46
2018-01-31T05:13:38.840Z,1007.41
2018-01-31T05:14:38.795Z,1007.43
2018-01-31T05:15:38.754Z,1007.45
2018-01-31T05:16:38.708Z,1007.48
2018-01-31T05:17:38.661Z,1007.47
2018-01-31T05:18:38.619Z,1007.46
2018-01-31T05:19:38.572Z,1007.43
2018-01-31T05:20:38.536Z,1007.42
2018-01-31T05:21:38.487Z,1007.47
2018-01-31T05:22:38.441Z,1007.42
2018-01-31T05:23:38.392Z,1007.37
2018-01-31T05:24:38.350Z,1007.35
2018-01-31T05:25:38.304Z,1007.43
2018-01-31T05:26:38.265Z,1007.48
2018-01-31T05:27:38.215Z,1007.28
2018-01-31T05:28:38.174Z,1007.39
2018-01-31T05:29:38.128Z,1007.29
2018-01-31T05:30:38.081Z,1007.25
2018-01-31T05:31:38.041Z,1007.23
2018-01-31T05:32:37.993Z,1007.22
2018-01-31T05:33:37.947Z,1007.16
2018-01-31T05:34:37.904Z,1007.20
2018-01-31T05:35:37.856Z,1007.13
2018-01-31T05:36:37.816Z,1007.17
2018-01-31T05:37:37.770Z,1007.12
2018-01-31T05:38:37.725Z,1007.14
2018-01-31T05:39:37.696Z,1007.19
2018-01-31T05:40:37.644Z,1007.10
2018-01-31T05:41:37.598Z,1007.13
2018-01-31T05:42:37.559Z,1007.09
2018-01-31T05:43:37.505Z,1007.08
2018-01-31T05:44:37.466Z,1007.13
2018-01-31T05:45:37.416Z,1007.16
2018-01-31T05:46:37.373Z,1007.13
2018-01-31T05:47:37.323Z,1007.09
2018-01-31T05:48:37.283Z,1007.06
2018-01-31T05:49:37.236Z,1007.07
2018-01-31T05:50:37.191Z,1007.05
2018-01-31T05:51:37.144Z,1007.05
2018-01-31T05:52:37.102Z,1006.98
2018-01-31T05:53:37.092Z,1007.07
2018-01-31T05:54:37.025Z,1006.97
2018-01-31T05:55:36.970Z,1007.02
2018-01-31T05:56:36.922Z,1006.99
2018-01-31T05:57:36.879Z,1007.05
2018-01-31T05:58:36.832Z,1007.02
2018-01-31T05:59:36.790Z,1007.05
2018-01-31T06:00:36.746Z,1007.00
2018-01-31T06:01:36.706Z,1006.95
2018-01-31T06:02:36.664Z,1006.98
2018-01-31T06:03:36.613Z,1006.96
2018-01-31T06:04:36.570Z,1006.92
2018-01-31T06:05:36.522Z,1007.01
2018-01-31T06:06:36.479Z,1006.98
2018-01-31T06:07:36.433Z,1006.94
2018-01-31T06:08:36.437Z,1006.99
2018-01-31T06:09:36.371Z,1006.87
2018-01-31T06:10:36.300Z,1006.89
2018-01-31T06:11:36.253Z,1006.89
2018-01-31T06:12:36.209Z,1006.96
2018-01-31T06:13:36.168Z,1006.85
2018-01-31T06:14:36.122Z,1006.88
2018-01-31T06:15:36.076Z,1006.85
2018-01-31T06:16:36.033Z,1006.80
2018-01-31T06:17:35.988Z,1006.81
2018-01-31T06:18:35.947Z,1006.73
2018-01-31T06:19:35.903Z,1006.75
2018-01-31T06:20:35.858Z,1006.70
2018-01-31T06:21:35.809Z,1006.74
2018-01-31T06:22:35.808Z,1006.66
2018-01-31T06:23:35.719Z,1006.73
2018-01-31T06:24:35.702Z,1006.60
2018-01-31T06:25:35.632Z,1006.65
2018-01-31T06:26:35.589Z,1006.72
2018-01-31T06:27:35.546Z,1006.78
2018-01-31T06:28:35.500Z,1006.64
2018-01-31T06:29:35.475Z,1006.66
2018-01-31T06:30:35.411Z,1006.59
2018-01-31T06:31:35.368Z,1006.61
2018-01-31T06:32:35.322Z,1006.55
2018-01-31T06:33:35.274Z,1006.54
2018-01-31T06:34:35.236Z,1006.51
2018-01-31T06:35:35.186Z,1006.42
2018-01-31T06:36:35.142Z,1006.44
2018-01-31T06:37:35.098Z,1006.46
2018-01-31T06:38:35.055Z,1006.33
2018-01-31T06:39:35.014Z,1006.32
2018-01-31T06:40:34.967Z,1006.23
2018-01-31T06:41:34.922Z,1006.31
2018-01-31T06:42:34.876Z,1006.28
2018-01-31T06:43:34.833Z,1006.19
2018-01-31T06:44:34.787Z,1006.24
2018-01-31T06:45:34.742Z,1006.08
2018-01-31T06:46:34.702Z,1006.08
2018-01-31T06:47:34.654Z,1006.08
2018-01-31T06:48:34.610Z,1006.01
2018-01-31T06:49:34.564Z,1006.05
2018-01-31T06:50:34.521Z,1005.92
2018-01-31T06:51:34.476Z,1006.01
2018-01-31T06:52:34.432Z,1005.98
2018-01-31T06:53:34.390Z,1005.97
2018-01-31T06:54:34.342Z,1005.82
2018-01-31T06:55:34.301Z,1005.93
2018-01-31T06:56:34.254Z,1005.82
2018-01-31T06:57:34.208Z,1005.84
2018-01-31T06:58:34.164Z,1005.81
2018-01-31T06:59:34.119Z,1005.78
2018-01-31T07:00:34.076Z,1005.69
2018-01-31T07:01:34.031Z,1005.79
2018-01-31T07:02:33.985Z,1005.90
2018-01-31T07:03:33.943Z,1005.90
2018-01-31T07:04:33.899Z,1005.76
2018-01-31T07:05:33.854Z,1005.77
2018-01-31T07:06:33.810Z,1005.84
2018-01-31T07:07:33.764Z,1005.82
2018-01-31T07:08:33.722Z,1005.73
2018-01-31T07:09:33.677Z,1005.65
2018-01-31T07:10:33.632Z,1005.62
2018-01-31T07:11:33.586Z,1005.52
2018-01-31T07:12:33.543Z,1005.63
2018-01-31T07:13:33.497Z,1005.55
2018-01-31T07:14:33.454Z,1005.63
2018-01-31T07:15:33.411Z,1005.59
2018-01-31T07:16:33.367Z,1005.58
2018-01-31T07:17:33.322Z,1005.58
2018-01-31T07:18:33.279Z,1005.56
2018-01-31T07:19:33.245Z,1005.56
2018-01-31T07:20:33.193Z,1005.56
2018-01-31T07:21:33.150Z,1005.51
2018-01-31T07:22:33.096Z,1005.47
2018-01-31T07:23:33.055Z,1005.40
2018-01-31T07:24:33.012Z,1005.40
2018-01-31T07:25:32.965Z,1005.48
2018-01-31T07:26:32.920Z,1005.29
2018-01-31T07:27:32.914Z,1005.37
2018-01-31T07:28:32.830Z,1005.36
2018-01-31T07:29:32.787Z,1005.43
2018-01-31T07:30:32.748Z,1005.36
2018-01-31T07:31:32.697Z,1005.43
2018-01-31T07:32:32.652Z,1005.42
2018-01-31T07:33:32.610Z,1005.47
2018-01-31T07:34:32.562Z,1005.41
2018-01-31T07:35:32.518Z,1005.37
2018-01-31T07:36:32.474Z,1005.51
2018-01-31T07:37:32.430Z,1005.34
2018-01-31T07:38:32.387Z,1005.33
2018-01-31T07:39:32.341Z,1005.38
2018-01-31T07:40:32.296Z,1005.24
2018-01-31T07:41:32.256Z,1005.22
2018-01-31T07:42:32.208Z,1005.07
2018-01-31T07:43:32.162Z,1005.15
2018-01-31T07:44:32.118Z,1005.16
2018-01-31T07:45:32.076Z,1005.10
2018-01-31T07:46:32.033Z,1005.07
2018-01-31T07:47:31.990Z,1005.07
2018-01-31T07:48:31.946Z,1005.01
2018-01-31T07:49:31.898Z,1005.04
2018-01-31T07:50:31.856Z,1005.00
2018-01-31T07:51:31.808Z,1004.87
2018-01-31T07:52:31.765Z,1005.00
2018-01-31T07:53:31.721Z,1004.94
2018-01-31T07:54:31.675Z,1004.89
2018-01-31T07:55:31.632Z,1004.85
2018-01-31T07:56:31.610Z,1004.84
2018-01-31T07:57:31.542Z,1004.81
2018-01-31T07:58:31.497Z,1004.83
2018-01-31T07:59:31.458Z,1004.75
2018-01-31T08:00:31.409Z,1004.73
2018-01-31T08:01:31.366Z,1004.78
2018-01-31T08:02:31.321Z,1004.72
2018-01-31T08:03:31.279Z,1004.71
2018-01-31T08:04:31.234Z,1004.68
2018-01-31T08:05:31.188Z,1004.64
2018-01-31T08:06:31.142Z,1004.63
2018-01-31T08:07:31.097Z,1004.67
2018-01-31T08:08:31.053Z,1004.66
2018-01-31T08:09:31.009Z,1004.58
2018-01-31T08:10:30.970Z,1004.68
2018-01-31T08:11:30.920Z,1004.63
2018-01-31T08:12:30.878Z,1004.61
2018-01-31T08:13:30.831Z,1004.78
2018-01-31T08:14:30.816Z,1004.64
2018-01-31T08:15:30.767Z,1004.58
2018-01-31T08:16:30.698Z,1004.58
2018-01-31T08:17:30.653Z,1004.62
2018-01-31T08:18:30.608Z,1004.51
2018-01-31T08:19:30.562Z,1004.46
2018-01-31T08:20:30.519Z,1004.56
2018-01-31T08:21:30.476Z,1004.61
2018-01-31T08:22:30.443Z,1004.61
2018-01-31T08:23:30.391Z,1004.51
2018-01-31T08:24:30.342Z,1004.53
2018-01-31T08:25:30.297Z,1004.46
2018-01-31T08:26:30.256Z,1004.55
2018-01-31T08:27:30.209Z,1004.48
2018-01-31T08:28:30.173Z,1004.43
2018-01-31T08:29:30.123Z,1004.44
2018-01-31T08:30:30.081Z,1004.37
2018-01-31T08:31:30.031Z,1004.38
2018-01-31T08:32:29.987Z,1004.37
2018-01-31T08:33:29.943Z,1004.33
2018-01-31T08:34:29.898Z,1004.40
2018-01-31T08:35:29.856Z,1004.37
2018-01-31T08:36:29.821Z,1004.40
2018-01-31T08:37:29.768Z,1004.42
2018-01-31T08:38:29.723Z,1004.45
2018-01-31T08:39:29.681Z,1004.35
2018-01-31T08:40:29.633Z,1004.33
2018-01-31T08:41:29.588Z,1004.32
2018-01-31T08:42:29.544Z,1004.31
2018-01-31T08:43:29.504Z,1004.34
2018-01-31T08:44:29.477Z,1004.36
2018-01-31T08:45:29.419Z,1004.21
2018-01-31T08:46:29.372Z,1004.27
2018-01-31T08:47:29.324Z,1004.22
2018-01-31T08:48:29.281Z,1004.20
2018-01-31T08:49:29.237Z,1004.30
2018-01-31T08:50:29.196Z,1004.20
2018-01-31T08:51:29.149Z,1004.11
2018-01-31T08:52:29.105Z,1004.12
2018-01-31T08:53:29.061Z,1004.05
2018-01-31T08:54:29.016Z,1003.96
2018-01-31T08:55:28.967Z,1003.82
2018-01-31T08:56:28.928Z,1004.04
2018-01-31T08:57:28.884Z,1003.86
2018-01-31T08:58:28.834Z,1003.93
2018-01-31T08:59:28.790Z,1003.95
2018-01-31T09:00:28.745Z,1004.04
2018-01-31T09:01:28.702Z,1003.91
2018-01-31T09:02:28.667Z,1003.92
2018-01-31T09:03:28.612Z,1003.90
2018-01-31T09:04:28.569Z,1003.92
2018-01-31T09:05:28.524Z,1003.88
2018-01-31T09:06:28.479Z,1003.85
2018-01-31T09:07:28.436Z,1003.82
2018-01-31T09:08:28.389Z,1003.82
2018-01-31T09:09:28.348Z,1003.76
2018-01-31T09:10:28.302Z,1003.74
2018-01-31T09:11:28.257Z,1003.80
2018-01-31T09:12:28.213Z,1003.69
2018-01-31T09:13:28.172Z,1003.61
2018-01-31T09:14:28.126Z,1003.70
2018-01-31T09:15:28.089Z,1003.69
2018-01-31T09:16:28.036Z,1003.62
2018-01-31T09:17:27.991Z,1003.58
2018-01-31T09:18:27.948Z,1003.49
2018-01-31T09:19:27.904Z,1003.56
2018-01-31T09:20:27.859Z,1003.54
2018-01-31T09:21:27.815Z,1003.47
2018-01-31T09:22:27.771Z,1003.62
2018-01-31T09:23:27.725Z,1003.40
2018-01-31T09:24:27.683Z,1003.53
2018-01-31T09:25:27.637Z,1003.47
2018-01-31T09:26:27.591Z,1003.55
2018-01-31T09:27:27.554Z,1003.25
2018-01-31T09:28:27.503Z,1003.44
2018-01-31T09:29:27.459Z,1003.43
2018-01-31T09:30:27.417Z,1003.53
2018-01-31T09:31:27.372Z,1003.46
2018-01-31T09:32:27.331Z,1003.49
2018-01-31T09:33:27.283Z,1003.71
2018-01-31T09:34:27.239Z,1003.55
2018-01-31T09:35:27.192Z,1003.43
2018-01-31T09:36:27.149Z,1003.45
2018-01-31T09:37:27.106Z,1003.48
2018-01-31T09:38:27.065Z,1003.48
2018-01-31T09:39:27.019Z,1003.43
2018-01-31T09:40:26.971Z,1003.36
2018-01-31T09:41:26.927Z,1003.36
2018-01-31T09:42:26.885Z,1003.38
2018-01-31T09:43:26.846Z,1003.31
2018-01-31T09:44:26.793Z,1003.39
2018-01-31T09:45:26.753Z,1003.35
2018-01-31T09:46:26.707Z,1003.32
2018-01-31T09:47:26.661Z,1003.35
2018-01-31T09:48:26.618Z,1003.38
2018-01-31T09:49:26.572Z,1003.28
2018-01-31T09:50:26.528Z,1003.29
2018-01-31T09:51:26.485Z,1003.20
2018-01-31T09:52:27.010Z,1003.19
2018-01-31T09:53:26.399Z,1003.18
2018-01-31T09:54:26.355Z,1003.26
2018-01-31T09:55:26.315Z,1003.13
2018-01-31T09:56:26.261Z,1003.10
2018-01-31T09:57:26.225Z,1003.10
2018-01-31T09:58:26.178Z,1003.25
2018-01-31T09:59:26.129Z,1003.01
2018-01-31T10:00:26.085Z,1003.09
2018-01-31T10:01:26.044Z,1002.99
2018-01-31T10:02:26.001Z,1003.02
2018-01-31T10:03:25.955Z,1002.98
2018-01-31T10:04:25.907Z,1003.04
2018-01-31T10:05:25.863Z,1003.02
2018-01-31T10:06:25.820Z,1002.99
2018-01-31T10:07:25.774Z,1003.01
2018-01-31T10:08:25.735Z,1002.99
2018-01-31T10:09:25.691Z,1002.84
2018-01-31T10:10:25.654Z,1002.78
2018-01-31T10:11:25.598Z,1002.88
2018-01-31T10:12:25.554Z,1002.74
2018-01-31T10:13:25.512Z,1002.82
2018-01-31T10:14:25.467Z,1002.96
2018-01-31T10:15:25.419Z,1002.87
2018-01-31T10:16:25.423Z,1002.85
2018-01-31T10:17:25.333Z,1002.81
2018-01-31T10:18:25.287Z,1002.80
2018-01-31T10:19:25.248Z,1002.74
2018-01-31T10:20:25.199Z,1002.71
2018-01-31T10:21:25.155Z,1002.65
2018-01-31T10:22:25.111Z,1002.69
2018-01-31T10:23:25.067Z,1002.69
2018-01-31T10:24:25.023Z,1002.56
2018-01-31T10:25:24.978Z,1002.61
2018-01-31T10:26:24.930Z,1002.55
2018-01-31T10:27:24.889Z,1002.45
2018-01-31T10:28:24.842Z,1002.56
2018-01-31T10:29:24.801Z,1002.48
2018-01-31T10:30:24.757Z,1002.44
2018-01-31T10:31:24.714Z,1002.40
2018-01-31T10:32:24.670Z,1002.30
2018-01-31T10:33:24.625Z,1002.50
2018-01-31T10:34:24.628Z,1002.39
2018-01-31T10:35:24.535Z,1002.50
2018-01-31T10:36:24.491Z,1002.52
2018-01-31T10:37:24.444Z,1002.42
2018-01-31T10:38:24.403Z,1002.39
2018-01-31T10:39:24.357Z,1002.34
2018-01-31T10:40:24.316Z,1002.41
2018-01-31T10:41:24.272Z,1002.37
2018-01-31T10:42:24.221Z,1002.44
2018-01-31T10:43:24.183Z,1002.28
2018-01-31T10:44:24.132Z,1002.30
2018-01-31T10:45:24.096Z,1002.41
2018-01-31T10:46:24.046Z,1002.16
2018-01-31T10:47:24.002Z,1002.27
2018-01-31T10:48:23.956Z,1002.07
2018-01-31T10:49:23.912Z,1002.28
2018-01-31T10:50:23.870Z,1002.23
2018-01-31T10:51:23.821Z,1002.18
2018-01-31T10:52:23.777Z,1002.19
2018-01-31T10:53:23.735Z,1002.34
2018-01-31T10:57:29.098Z,1002.16
2018-01-31T10:58:23.518Z,1002.34
2018-01-31T10:59:23.468Z,1002.01
2018-01-31T11:00:23.423Z,1002.04
2018-01-31T11:01:23.381Z,1001.87
2018-01-31T11:02:23.335Z,1001.85
2018-01-31T11:03:23.289Z,1001.91
2018-01-31T11:04:23.247Z,1001.89
2018-01-31T11:05:23.203Z,1001.68
2018-01-31T11:06:23.154Z,1001.82
2018-01-31T11:07:23.110Z,1001.78
2018-01-31T11:08:23.067Z,1001.74
2018-01-31T11:09:23.028Z,1001.64
2018-01-31T11:10:22.982Z,1001.74
2018-01-31T11:11:22.931Z,1001.65
2018-01-31T11:12:22.889Z,1001.68
2018-01-31T11:13:22.842Z,1001.61
2018-01-31T11:14:22.803Z,1001.54
2018-01-31T11:15:22.755Z,1001.67
2018-01-31T11:16:22.708Z,1001.56
2018-01-31T11:17:22.664Z,1001.54
2018-01-31T11:18:22.619Z,1001.56
2018-01-31T11:19:22.575Z,1001.65
2018-01-31T11:20:22.530Z,1001.44
2018-01-31T11:21:22.485Z,1001.49
2018-01-31T11:22:22.444Z,1001.39
2018-01-31T11:23:22.397Z,1001.42
2018-01-31T11:24:22.360Z,1001.43
2018-01-31T11:25:22.312Z,1001.43
2018-01-31T11:26:22.264Z,1001.45
2018-01-31T11:27:22.231Z,1001.43
2018-01-31T11:28:22.176Z,1001.29
2018-01-31T11:29:22.135Z,1001.28
2018-01-31T11:30:22.087Z,1001.17
2018-01-31T11:31:22.040Z,1001.20
2018-01-31T11:32:22.001Z,1001.31
2018-01-31T11:33:21.952Z,1001.30
2018-01-31T11:34:21.908Z,1001.28
2018-01-31T11:35:21.865Z,1001.24
2018-01-31T11:36:21.820Z,1001.23
2018-01-31T11:37:21.777Z,1001.24
2018-01-31T11:38:21.730Z,1001.14
2018-01-31T11:39:21.687Z,1001.12
2018-01-31T11:40:21.641Z,1001.07
2018-01-31T11:41:21.598Z,1001.14
2018-01-31T11:42:21.552Z,1001.16
2018-01-31T11:43:21.507Z,1000.94
2018-01-31T11:44:21.463Z,1001.06
2018-01-31T11:45:21.422Z,1000.95
2018-01-31T11:46:21.376Z,1001.01
2018-01-31T11:47:21.333Z,1000.96
2018-01-31T11:48:21.286Z,1000.95
2018-01-31T11:49:21.243Z,1000.87
2018-01-31T11:50:21.196Z,1000.90
2018-01-31T11:51:21.208Z,1000.88
2018-01-31T11:52:21.113Z,1000.83
2018-01-31T11:53:21.067Z,1000.89
2018-01-31T11:54:21.018Z,1000.89
2018-01-31T11:55:20.975Z,1000.74
2018-01-31T11:56:20.927Z,1000.74
2018-01-31T11:57:20.885Z,1000.76
2018-01-31T11:58:20.839Z,1000.63
2018-01-31T11:59:20.800Z,1000.69
2018-01-31T12:00:20.751Z,1000.70
2018-01-31T12:01:20.829Z,1000.76
2018-01-31T12:02:20.663Z,1000.70
2018-01-31T12:03:20.616Z,1000.76
2018-01-31T12:04:20.573Z,1000.66
2018-01-31T12:05:20.526Z,1000.74
2018-01-31T12:06:20.484Z,1000.69
2018-01-31T12:07:20.436Z,1000.63
2018-01-31T12:08:20.393Z,1000.65
2018-01-31T12:09:20.345Z,1000.67
2018-01-31T12:10:20.303Z,1000.53
2018-01-31T12:11:20.256Z,1000.58
2018-01-31T12:12:20.212Z,1000.55
2018-01-31T12:13:20.170Z,1000.52
2018-01-31T12:14:20.129Z,1000.43
2018-01-31T12:15:20.082Z,1000.45
2018-01-31T12:16:20.035Z,1000.45
2018-01-31T12:17:19.997Z,1000.43
2018-01-31T12:18:19.947Z,1000.48
2018-01-31T12:19:19.900Z,1000.35
2018-01-31T12:20:19.858Z,1000.33
2018-01-31T12:21:19.811Z,1000.33
2018-01-31T12:22:19.765Z,1000.37
2018-01-31T12:23:19.721Z,1000.37
2018-01-31T12:24:19.675Z,1000.32
2018-01-31T12:25:19.634Z,1000.52
2018-01-31T12:26:19.587Z,1000.26
2018-01-31T12:27:19.545Z,1000.27
2018-01-31T12:28:19.499Z,1000.31
2018-01-31T12:29:19.456Z,1000.24
2018-01-31T12:30:19.408Z,1000.21
2018-01-31T12:31:19.365Z,1000.11
2018-01-31T12:32:19.320Z,1000.25
2018-01-31T12:33:19.279Z,1000.26
2018-01-31T12:34:19.234Z,1000.20
2018-01-31T12:35:19.187Z,1000.14
2018-01-31T12:36:19.142Z,1000.15
2018-01-31T12:37:19.099Z,1000.09
2018-01-31T12:38:19.051Z,1000.02
2018-01-31T12:39:19.008Z,999.97
2018-01-31T12:40:18.966Z,999.89
2018-01-31T12:41:18.920Z,999.92
2018-01-31T12:42:18.873Z,999.97
2018-01-31T12:43:18.828Z,999.93
2018-01-31T12:44:18.786Z,1000.04
2018-01-31T12:45:18.740Z,1000.04
2018-01-31T12:46:18.700Z,1000.46
2018-01-31T12:47:18.653Z,1000.19
2018-01-31T12:48:18.610Z,1000.18
2018-01-31T12:49:18.566Z,1000.15
2018-01-31T12:50:18.518Z,1000.13
2018-01-31T12:51:18.475Z,999.87
2018-01-31T12:52:18.427Z,999.97
2018-01-31T12:53:18.382Z,999.94
2018-01-31T12:54:18.339Z,999.99
2018-01-31T12:55:18.291Z,999.78
2018-01-31T12:56:18.248Z,999.92
2018-01-31T12:57:18.205Z,1000.04
2018-01-31T12:58:18.160Z,999.90
2018-01-31T12:59:18.115Z,999.87
2018-01-31T13:00:18.067Z,999.89
2018-01-31T13:01:18.027Z,999.89
2018-01-31T13:02:17.982Z,999.72
2018-01-31T13:03:17.937Z,999.70
2018-01-31T13:04:17.888Z,999.79
2018-01-31T13:05:17.845Z,999.76
2018-01-31T13:06:17.800Z,999.71
2018-01-31T13:07:17.752Z,999.63
2018-01-31T13:08:17.710Z,999.56
2018-01-31T13:09:17.662Z,999.59
2018-01-31T13:10:17.616Z,999.60
2018-01-31T13:11:17.573Z,999.53
2018-01-31T13:12:17.527Z,999.52
2018-01-31T13:13:17.488Z,999.55
2018-01-31T13:14:17.437Z,999.52
2018-01-31T13:15:17.394Z,999.56
2018-01-31T13:16:17.344Z,999.43
2018-01-31T13:17:17.301Z,999.49
2018-01-31T13:18:17.256Z,999.52
2018-01-31T13:19:17.214Z,999.46
2018-01-31T13:20:17.165Z,999.49
2018-01-31T13:21:17.121Z,999.48
2018-01-31T13:22:17.074Z,999.46
2018-01-31T13:23:17.028Z,999.41
2018-01-31T13:24:16.982Z,999.41
2018-01-31T13:25:16.937Z,999.37
2018-01-31T13:26:16.893Z,999.34
2018-01-31T13:27:16.846Z,999.28
2018-01-31T13:28:16.801Z,999.33
2018-01-31T13:29:16.760Z,999.25
2018-01-31T13:30:16.711Z,999.26
2018-01-31T13:31:16.671Z,999.26
2018-01-31T13:32:16.623Z,999.28
2018-01-31T13:33:16.576Z,999.27
2018-01-31T13:34:16.530Z,999.27
2018-01-31T13:35:16.486Z,999.19
2018-01-31T13:36:16.440Z,999.14
2018-01-31T13:37:16.398Z,999.16
2018-01-31T13:38:16.350Z,999.19
2018-01-31T13:39:16.308Z,999.12
2018-01-31T13:40:16.270Z,999.17
2018-01-31T13:41:16.212Z,999.10
2018-01-31T13:42:16.173Z,999.01
2018-01-31T13:43:16.126Z,998.95
2018-01-31T13:44:16.077Z,998.98
2018-01-31T13:45:16.036Z,998.98
2018-01-31T13:46:15.988Z,998.92
2018-01-31T13:47:15.941Z,998.85
2018-01-31T13:48:15.900Z,998.83
2018-01-31T13:49:15.851Z,998.87
2018-01-31T13:50:15.806Z,998.73
2018-01-31T13:51:15.766Z,998.74
2018-01-31T13:52:15.716Z,998.90
2018-01-31T13:53:15.671Z,998.90
2018-01-31T13:54:15.624Z,998.70
2018-01-31T13:55:15.578Z,998.69
2018-01-31T13:56:15.536Z,998.60
2018-01-31T13:57:15.512Z,998.70
2018-01-31T13:58:15.447Z,998.64
2018-01-31T13:59:15.399Z,998.61
2018-01-31T14:00:15.355Z,998.57
2018-01-31T14:01:15.311Z,998.66
2018-01-31T14:02:15.309Z,998.63
2018-01-31T14:03:15.216Z,998.68